Huvudsida
METAR-TAF:

METAR-TAF

Flygplatser :

Cairns International Airport

Cairns, Australien

latitud: 16-53S, longitud: 145-45E, höjd: 3 m

Aktuellt väderrapport

Denna rapport gjordes för 22 minuter sedan, klockan 11:00 UTC
Stilla vind
Temperatur 16°C
Fuktighet 68%
Tryck 1017 hPa
Sikt 10 km eller mer
Inga moln under 1 500 m eller inga cumulonimbus

METAR: YBCS 191100Z 00000KT CAVOK 16/10 Q1017 NOSIG

Tid: 21:22 (11:22 UTC)

Väderprognos

Denna rapport gjordes för 5 timmar och 55 minuter sedan, klockan 05:27 UTC
Prognos gäller från 19 kl. 06 UTC till 20 kl. 06 UTC
Vind 16 kt från sydost
Sikt 10 km eller mer
Inga moln under 1 500 m eller inga cumulonimbus
Från 19 kl. 0800 UTC
Vind 12 kt från syd
Sikt 10 km eller mer
Inga moln under 1 500 m eller inga cumulonimbus
Från 19 kl. 2300 UTC
Vind 18 kt från sydost
Sikt 10 km eller mer
Inga moln under 1 500 m eller inga cumulonimbus

TAF: YBCS 190527Z 1906/2006 13016KT CAVOK FM190800 17012KT CAVOK FM192300 14018KT CAVOK

Aktuella väderrapporter och prognoser från 4000 flygplatser (METAR- och TAF-rapporter).

De tillgängliga stationerna syns som gula och röda prickar på kartan.

För musen över prickarna för att se namnen på stationerna.

Klicka sedan för att få väderrapporter och prognoser.

För att ändra kartan: Klicka på de gröna knapparna med ett svart kors på för att zooma in; den gröna knappen med ett streck på för att zooma ut; eller på de gröna pilarna för angränsande kartor.


METAR-TAF: